Time;durP1;ratioP1;P1;durP2;ratioP2;P2;SDS_P1;SDS_P2;PMS_P1;PMS_P2;Temp;Humidity;BMP_temperature;BMP_pressure;BME280_temperature;BME280_humidity;BME280_pressure;Samples;Min_cycle;Max_cycle;Signal;HPM_P1;HPM_P2
2022/05/03 00:00:13;;;;;;;27.35;15.85;;;22.40;43.20;;;;;;5091327;28;20038;-76
2022/05/03 00:02:54;;;;;;;23.33;15.57;;;22.40;43.40;;;;;;5089158;28;20056;-77
2022/05/03 00:05:40;;;;;;;26.80;15.65;;;22.40;43.30;;;;;;5089928;28;20035;-77
2022/05/03 00:08:42;;;;;;;27.35;15.27;;;22.40;43.70;;;;;;5091397;28;20468;-77
2022/05/03 00:11:16;;;;;;;24.20;15.05;;;22.40;43.80;;;;;;5091465;28;20043;-77
2022/05/03 00:13:59;;;;;;;25.98;15.23;;;22.40;44.00;;;;;;5090850;28;20111;-77
2022/05/03 00:16:26;;;;;;;27.58;15.73;;;22.40;43.90;;;;;;5091467;28;20024;-77
2022/05/03 00:18:52;;;;;;;23.05;14.10;;;22.40;44.30;;;;;;5091436;28;20024;-77
2022/05/03 00:21:18;;;;;;;23.83;13.65;;;22.40;43.90;;;;;;5091367;28;20034;-77
2022/05/03 00:23:45;;;;;;;23.33;14.18;;;22.40;43.90;;;;;;5089772;28;20036;-77
2022/05/03 00:26:11;;;;;;;24.05;14.43;;;22.40;44.10;;;;;;5090401;28;20063;-77
2022/05/03 00:28:39;;;;;;;24.10;14.52;;;22.40;44.10;;;;;;5091138;28;20020;-77
2022/05/03 00:31:06;;;;;;;23.48;14.52;;;22.40;44.20;;;;;;5091000;28;20024;-77
2022/05/03 00:33:33;;;;;;;24.65;15.00;;;22.40;44.30;;;;;;5090741;28;20480;-77
2022/05/03 00:35:59;;;;;;;22.02;14.13;;;22.40;44.60;;;;;;5091161;28;20054;-77
2022/05/03 00:38:25;;;;;;;24.52;15.15;;;22.40;44.70;;;;;;5089610;28;20492;-77
2022/05/03 00:41:00;;;;;;;23.40;14.63;;;22.40;44.80;;;;;;5090979;28;20046;-77
2022/05/03 00:43:38;;;;;;;20.95;13.90;;;22.40;44.80;;;;;;5093443;28;20035;-76
2022/05/03 00:46:12;;;;;;;23.73;13.98;;;22.40;44.80;;;;;;5094815;28;20437;-76
2022/05/03 00:49:07;;;;;;;26.10;13.90;;;22.50;44.90;;;;;;5093771;28;20473;-75
2022/05/03 00:51:44;;;;;;;29.10;14.70;;;22.40;45.00;;;;;;5093808;28;20366;-75
2022/05/03 00:54:24;;;;;;;25.50;14.50;;;22.50;44.80;;;;;;5076357;28;20020;-78
2022/05/03 00:57:20;;;;;;;26.98;14.32;;;22.50;45.30;;;;;;5094907;28;20020;-77
2022/05/03 01:00:14;;;;;;;29.15;16.75;;;22.50;45.20;;;;;;5094849;28;20254;-77
2022/05/03 01:03:10;;;;;;;22.35;15.05;;;22.50;45.20;;;;;;5093688;28;20020;-77
2022/05/03 01:06:17;;;;;;;24.08;13.63;;;22.40;45.10;;;;;;5094479;28;20389;-77
2022/05/03 01:09:06;;;;;;;21.95;13.82;;;22.50;45.20;;;;;;5086510;28;20086;-77
2022/05/03 01:11:50;;;;;;;25.33;14.80;;;22.50;45.30;;;;;;5093964;28;20388;-77
2022/05/03 01:14:54;;;;;;;25.73;13.60;;;22.50;45.30;;;;;;5094199;28;20030;-77
2022/05/03 01:17:49;;;;;;;24.17;14.68;;;22.50;45.40;;;;;;5094564;28;20533;-77
2022/05/03 01:20:30;;;;;;;23.17;13.35;;;22.50;45.40;;;;;;5093394;28;20487;-77
2022/05/03 01:23:23;;;;;;;22.80;13.90;;;22.50;45.40;;;;;;5092788;28;20028;-77
2022/05/03 01:26:25;;;;;;;23.50;13.30;;;22.50;45.30;;;;;;5094107;28;20024;-77
2022/05/03 01:29:05;;;;;;;21.85;12.77;;;22.40;45.60;;;;;;5092916;28;20111;-77
2022/05/03 01:31:30;;;;;;;26.20;14.55;;;22.50;45.60;;;;;;5094016;28;20052;-77
2022/05/03 01:34:02;;;;;;;23.98;13.27;;;22.50;45.60;;;;;;5092509;28;20512;-77
2022/05/03 01:36:46;;;;;;;23.02;13.05;;;22.50;45.70;;;;;;5094082;28;20039;-77
2022/05/03 01:39:17;;;;;;;22.88;13.73;;;22.50;45.70;;;;;;5092843;28;20492;-77
2022/05/03 01:41:57;;;;;;;18.58;12.15;;;22.40;45.80;;;;;;5094224;28;20037;-77
2022/05/03 01:44:44;;;;;;;20.70;12.13;;;22.50;45.90;;;;;;5093904;28;20039;-78
2022/05/03 01:47:37;;;;;;;21.55;12.77;;;22.50;46.40;;;;;;5092631;28;20031;-77
2022/05/03 01:50:30;;;;;;;20.92;12.23;;;22.40;45.90;;;;;;5076416;28;20085;-78
2022/05/03 01:53:21;;;;;;;20.02;12.70;;;22.50;46.20;;;;;;5093284;28;20039;-77
2022/05/03 01:55:59;;;;;;;19.35;12.50;;;22.50;46.10;;;;;;5093861;28;20028;-77
2022/05/03 01:58:40;;;;;;;23.60;13.18;;;22.40;46.00;;;;;;5093558;28;20050;-77
2022/05/03 02:01:18;;;;;;;20.58;12.43;;;22.50;46.10;;;;;;5075436;28;20396;-77
2022/05/03 02:03:58;;;;;;;21.08;13.30;;;22.50;46.10;;;;;;5093240;28;20123;-77
2022/05/03 02:06:48;;;;;;;21.88;12.13;;;22.50;46.20;;;;;;5092441;28;20059;-77
2022/05/03 02:09:14;;;;;;;19.88;12.15;;;22.50;46.20;;;;;;5093632;28;20034;-77
2022/05/03 02:12:05;;;;;;;21.77;12.27;;;22.50;46.30;;;;;;5094239;28;20024;-78
2022/05/03 02:14:45;;;;;;;20.35;12.15;;;22.60;46.60;;;;;;5093215;28;20020;-77
2022/05/03 02:17:17;;;;;;;;;;;22.50;46.60;;;;;;5092538;28;20052;-77
2022/05/03 02:20:12;;;;;;;20.40;11.90;;;22.50;46.80;;;;;;5092196;28;19908;-77
2022/05/03 02:23:10;;;;;;;18.60;11.82;;;22.50;47.20;;;;;;5092805;28;20529;-77
2022/05/03 02:26:13;;;;;;;20.60;12.90;;;22.50;46.90;;;;;;5093214;28;20064;-78
2022/05/03 02:28:44;;;;;;;20.50;12.15;;;22.50;47.10;;;;;;5093130;28;20048;-78
2022/05/03 02:31:17;;;;;;;19.25;11.52;;;22.60;47.10;;;;;;5093127;28;20130;-78
2022/05/03 02:33:49;;;;;;;19.15;11.63;;;22.50;46.90;;;;;;5091324;28;20047;-78
2022/05/03 02:36:17;;;;;;;16.88;10.82;;;22.50;47.00;;;;;;5093084;28;20039;-77
2022/05/03 02:39:04;;;;;;;19.83;11.57;;;22.60;46.90;;;;;;5093026;28;20426;-78
2022/05/03 02:41:34;;;;;;;20.70;11.63;;;22.50;46.80;;;;;;5093010;28;20032;-77
2022/05/03 02:44:02;;;;;;;17.90;10.77;;;22.50;46.90;;;;;;5093265;28;20384;-77
2022/05/03 02:46:41;;;;;;;20.90;11.77;;;22.50;47.50;;;;;;5092503;28;20519;-77
2022/05/03 02:49:28;;;;;;;18.73;11.35;;;22.50;47.00;;;;;;5092947;28;20475;-77
2022/05/03 02:52:14;;;;;;;18.58;10.93;;;22.60;47.20;;;;;;5074559;28;20395;-77
2022/05/03 02:55:06;;;;;;;18.13;10.80;;;22.50;47.20;;;;;;5092441;28;20028;-77
2022/05/03 02:58:01;;;;;;;22.00;11.30;;;22.50;47.10;;;;;;5092430;28;20028;-77
2022/05/03 03:03:37;;;;;;;18.90;11.85;;;22.50;47.40;;;;;;5090994;28;20118;-77
2022/05/03 03:06:04;;;;;;;16.90;10.68;;;22.50;47.20;;;;;;5091498;28;20134;-77
2022/05/03 03:08:42;;;;;;;19.23;10.85;;;22.50;47.10;;;;;;5092099;28;20028;-76
2022/05/03 03:11:16;;;;;;;16.27;10.18;;;22.60;47.10;;;;;;5091160;28;20063;-77
2022/05/03 03:14:10;;;;;;;18.27;10.10;;;22.50;47.10;;;;;;5092148;28;20035;-77
2022/05/03 03:16:49;;;;;;;18.85;10.50;;;22.50;47.00;;;;;;5073961;28;20028;-77
2022/05/03 03:19:46;;;;;;;16.55;10.40;;;22.50;47.00;;;;;;5092267;28;20028;-77
2022/05/03 03:22:14;;;;;;;16.13;10.13;;;22.60;47.10;;;;;;5073905;28;20032;-77
2022/05/03 03:24:40;;;;;;;17.27;11.02;;;22.60;47.20;;;;;;5091552;28;20021;-77
2022/05/03 03:27:09;;;;;;;16.75;10.13;;;22.60;47.30;;;;;;5090766;28;20024;-77
2022/05/03 03:29:38;;;;;;;15.50;9.90;;;22.60;47.00;;;;;;5091872;28;20243;-78
2022/05/03 03:32:07;;;;;;;17.17;10.40;;;22.60;47.30;;;;;;5091618;28;20110;-77
2022/05/03 03:34:33;;;;;;;16.67;10.53;;;22.50;47.30;;;;;;5090591;28;20094;-78
2022/05/03 03:37:02;;;;;;;16.40;10.00;;;22.60;47.20;;;;;;5090527;28;20376;-77
2022/05/03 03:39:30;;;;;;;16.05;10.48;;;22.50;47.20;;;;;;5091786;28;20035;-78
2022/05/03 03:42:01;;;;;;;15.93;10.20;;;22.50;47.00;;;;;;5091583;28;20082;-78
2022/05/03 03:44:26;;;;;;;16.48;9.93;;;22.50;47.40;;;;;;5091865;28;20028;-78
2022/05/03 03:46:53;;;;;;;15.98;9.95;;;22.60;47.90;;;;;;5091601;28;20490;-77
2022/05/03 03:49:18;;;;;;;15.70;9.77;;;22.50;47.50;;;;;;5091433;28;20073;-77
2022/05/03 03:51:45;;;;;;;15.63;9.60;;;22.50;47.90;;;;;;5090327;28;20032;-77
2022/05/03 03:54:12;;;;;;;16.63;9.25;;;22.50;47.60;;;;;;5091086;28;20403;-77
2022/05/03 03:56:38;;;;;;;18.85;10.20;;;22.50;47.90;;;;;;5091414;28;20122;-77
2022/05/03 03:59:04;;;;;;;14.88;8.77;;;22.60;48.10;;;;;;5090470;28;20024;-78
2022/05/03 04:01:31;;;;;;;15.55;9.55;;;22.50;48.40;;;;;;5091600;28;20017;-77
2022/05/03 04:03:58;;;;;;;15.05;9.30;;;22.50;48.10;;;;;;5090804;28;20032;-77
2022/05/03 04:06:24;;;;;;;16.33;9.82;;;22.50;49.10;;;;;;5091915;28;20032;-78
2022/05/03 04:08:50;;;;;;;16.55;9.82;;;22.60;48.40;;;;;;5091100;28;20020;-79
2022/05/03 04:11:16;;;;;;;18.02;9.95;;;22.60;48.60;;;;;;5091787;28;20504;-78
2022/05/03 04:13:45;;;;;;;15.48;9.20;;;22.50;48.80;;;;;;5090775;28;20028;-78
2022/05/03 04:16:11;;;;;;;15.82;9.30;;;22.50;48.40;;;;;;5091588;28;20185;-78
2022/05/03 04:18:46;;;;;;;16.40;9.77;;;22.50;48.00;;;;;;5090278;28;20544;-78
2022/05/03 04:21:16;;;;;;;13.85;8.77;;;22.50;47.70;;;;;;5090382;28;20127;-78
2022/05/03 04:23:45;;;;;;;15.85;9.02;;;22.60;47.50;;;;;;5090666;28;20035;-79
2022/05/03 04:26:12;;;;;;;15.70;9.63;;;22.50;47.40;;;;;;5091219;28;20309;-78
2022/05/03 04:28:41;;;;;;;15.25;8.45;;;22.60;47.80;;;;;;5091189;28;20472;-78
2022/05/03 04:31:07;;;;;;;17.10;8.88;;;22.50;47.30;;;;;;5091239;28;20451;-78
2022/05/03 04:33:33;;;;;;;15.35;8.73;;;22.60;47.30;;;;;;5089352;28;20370;-78
2022/05/03 04:35:59;;;;;;;15.93;9.32;;;22.50;47.50;;;;;;5090941;28;20051;-78
2022/05/03 04:38:25;;;;;;;14.95;8.77;;;22.60;47.80;;;;;;5091081;28;20067;-78
2022/05/03 04:40:57;;;;;;;12.88;8.18;;;22.60;47.50;;;;;;5091205;28;20020;-78
2022/05/03 04:43:23;;;;;;;13.52;8.10;;;22.50;47.80;;;;;;5089703;28;20035;-78
2022/05/03 04:45:49;;;;;;;14.05;8.30;;;22.60;47.40;;;;;;5090839;28;20028;-78
2022/05/03 04:48:14;;;;;;;14.73;8.25;;;22.50;47.90;;;;;;5089808;28;20038;-78
2022/05/03 04:50:41;;;;;;;15.20;9.00;;;22.50;47.70;;;;;;5090682;28;20059;-78
2022/05/03 04:53:06;;;;;;;13.50;8.20;;;22.60;47.30;;;;;;5090625;28;20309;-78
2022/05/03 04:55:32;;;;;;;14.82;8.95;;;22.60;47.60;;;;;;5090834;28;20114;-78
2022/05/03 04:57:58;;;;;;;14.45;8.10;;;22.50;47.60;;;;;;5090878;28;20032;-78
2022/05/03 05:00:23;;;;;;;13.85;8.05;;;22.60;47.60;;;;;;5091339;28;20032;-78
2022/05/03 05:02:49;;;;;;;14.45;8.73;;;22.60;47.90;;;;;;5090395;28;20034;-79
2022/05/03 05:05:15;;;;;;;14.77;8.35;;;22.50;47.40;;;;;;5089368;28;20039;-78
2022/05/03 05:07:40;;;;;;;15.32;8.75;;;22.60;47.50;;;;;;5090785;28;20024;-78
2022/05/03 05:10:26;;;;;;;13.07;8.18;;;22.60;47.50;;;;;;5090573;28;20028;-78
2022/05/03 05:12:54;;;;;;;15.00;8.43;;;22.50;47.40;;;;;;5089340;28;20494;-78
2022/05/03 05:15:23;;;;;;;13.65;8.13;;;22.50;48.00;;;;;;5090702;28;20488;-78
2022/05/03 05:17:49;;;;;;;15.13;8.20;;;22.50;47.50;;;;;;5089409;28;20032;-78
2022/05/03 05:20:15;;;;;;;14.82;8.60;;;22.50;47.60;;;;;;5089760;28;20032;-76
2022/05/03 05:22:42;;;;;;;14.00;8.30;;;22.50;47.60;;;;;;5090675;28;20035;-76
2022/05/03 05:25:09;;;;;;;12.65;7.68;;;22.50;47.40;;;;;;5089184;28;20484;-77
2022/05/03 05:27:34;;;;;;;12.60;7.65;;;22.50;47.80;;;;;;5089602;28;20024;-77
2022/05/03 05:30:00;;;;;;;18.38;8.15;;;22.50;47.50;;;;;;5092127;28;20024;-77
2022/05/03 05:32:26;;;;;;;14.82;7.90;;;22.60;47.60;;;;;;5092736;28;20055;-77
2022/05/03 05:34:52;;;;;;;12.63;7.28;;;22.60;47.60;;;;;;5092355;28;20098;-77
2022/05/03 05:37:17;;;;;;;15.65;8.70;;;22.50;47.50;;;;;;5094140;28;20024;-77
2022/05/03 05:39:44;;;;;;;11.90;7.35;;;22.50;47.60;;;;;;5094036;28;20069;-77
2022/05/03 05:42:11;;;;;;;12.50;7.43;;;22.50;47.40;;;;;;5092929;28;20490;-77
2022/05/03 05:44:38;;;;;;;13.73;7.65;;;22.60;47.60;;;;;;5093598;28;20023;-77
2022/05/03 05:47:05;;;;;;;12.63;7.80;;;22.50;47.40;;;;;;5092636;28;20114;-77
2022/05/03 05:49:31;;;;;;;14.20;8.13;;;22.50;47.60;;;;;;5093250;28;20031;-77
2022/05/03 05:53:31;;;;;;;14.52;8.55;;;22.50;47.60;;;;;;5093791;28;20035;-78
2022/05/03 05:54:43;;;;;;;13.55;7.70;;;22.50;47.60;;;;;;5093268;28;20031;-77
2022/05/03 05:57:08;;;;;;;16.30;8.10;;;22.50;47.60;;;;;;5093609;28;20031;-77
2022/05/03 05:59:34;;;;;;;13.07;7.32;;;22.50;47.60;;;;;;5093626;28;20139;-77
2022/05/03 06:02:00;;;;;;;13.10;7.63;;;22.50;47.70;;;;;;5092352;28;20020;-78
2022/05/03 06:04:28;;;;;;;13.40;7.90;;;22.50;47.60;;;;;;5092129;28;20028;-78
2022/05/03 06:06:55;;;;;;;12.85;7.40;;;22.50;47.70;;;;;;5092166;28;20473;-78
2022/05/03 06:09:21;;;;;;;12.90;7.38;;;22.50;47.80;;;;;;5093779;28;20420;-78
2022/05/03 06:11:46;;;;;;;11.63;6.80;;;22.50;48.20;;;;;;5093459;28;20081;-78
2022/05/03 06:14:12;;;;;;;13.52;7.82;;;22.60;48.20;;;;;;5093178;28;20034;-78
2022/05/03 06:16:55;;;;;;;14.68;7.70;;;22.60;47.70;;;;;;5093511;28;20030;-79
2022/05/03 06:19:22;;;;;;;13.95;7.03;;;22.60;47.90;;;;;;5093222;28;20039;-78
2022/05/03 06:21:48;;;;;;;12.55;7.95;;;22.50;48.30;;;;;;5093248;28;20031;-78
2022/05/03 06:24:14;;;;;;;14.07;8.32;;;22.50;48.10;;;;;;5092985;28;20024;-78
2022/05/03 06:26:41;;;;;;;12.50;7.57;;;22.50;48.00;;;;;;5074776;28;20214;-78
2022/05/03 06:29:08;;;;;;;11.55;7.10;;;22.50;47.70;;;;;;5093510;28;20361;-78
2022/05/03 06:31:38;;;;;;;14.18;7.50;;;22.50;48.00;;;;;;5075036;28;20438;-79
2022/05/03 06:34:04;;;;;;;;;;;22.50;48.10;;;;;;5075195;28;20032;-78
2022/05/03 06:36:30;;;;;;;14.07;7.10;;;22.60;48.30;;;;;;5092946;28;19938;-78
2022/05/03 06:38:56;;;;;;;13.05;7.03;;;22.60;48.30;;;;;;5074791;28;20460;-78
2022/05/03 06:41:22;;;;;;;13.20;7.57;;;22.60;48.50;;;;;;5092723;28;20039;-78
2022/05/03 06:43:47;;;;;;;12.10;7.25;;;22.60;48.90;;;;;;5074295;28;20484;-78
2022/05/03 06:46:13;;;;;;;13.63;7.80;;;22.60;49.30;;;;;;5092751;28;20036;-79
2022/05/03 06:48:39;;;;;;;12.23;7.50;;;22.60;49.40;;;;;;5092686;28;20024;-78
2022/05/03 06:51:05;;;;;;;14.82;7.15;;;22.60;49.20;;;;;;5074664;28;20467;-78
2022/05/03 06:53:32;;;;;;;13.82;7.00;;;22.60;50.10;;;;;;5090878;28;20055;-78
2022/05/03 06:55:58;;;;;;;12.95;7.78;;;22.60;49.80;;;;;;5091409;28;20123;-78
2022/05/03 06:58:24;;;;;;;11.55;6.85;;;22.60;49.70;;;;;;5091238;28;20150;-78
2022/05/03 07:00:49;;;;;;;11.60;6.95;;;22.60;49.90;;;;;;5074569;28;20086;-78
2022/05/03 07:03:17;;;;;;;12.68;7.30;;;22.60;50.10;;;;;;5090588;28;20039;-78
2022/05/03 07:05:43;;;;;;;12.00;6.95;;;22.70;50.20;;;;;;5092434;28;20124;-78
2022/05/03 07:08:10;;;;;;;11.48;6.50;;;22.60;50.70;;;;;;5090871;28;20459;-78
2022/05/03 07:10:37;;;;;;;12.07;6.97;;;22.70;50.40;;;;;;5091980;28;20024;-77
2022/05/03 07:13:03;;;;;;;11.57;7.20;;;22.60;50.30;;;;;;5092045;28;20058;-78
2022/05/03 07:15:30;;;;;;;11.52;6.85;;;22.70;50.60;;;;;;5092283;28;20097;-78
2022/05/03 07:23:26;;;;;;;13.20;6.80;;;22.70;50.20;;;;;;5091737;28;20036;-77
2022/05/03 07:25:53;;;;;;;12.50;6.88;;;22.70;50.30;;;;;;5091962;28;20122;-76
2022/05/03 07:28:19;;;;;;;12.82;6.90;;;22.70;50.50;;;;;;5090528;28;20413;-77
2022/05/03 07:30:46;;;;;;;13.27;7.20;;;22.70;50.50;;;;;;5092104;28;20024;-77
2022/05/03 07:33:11;;;;;;;11.55;6.65;;;22.70;50.30;;;;;;5090626;28;20110;-77
2022/05/03 07:35:37;;;;;;;12.70;6.90;;;22.70;50.30;;;;;;5091827;28;20112;-77
2022/05/03 07:38:03;;;;;;;13.43;7.22;;;22.70;50.20;;;;;;5090616;28;20069;-77
2022/05/03 07:40:29;;;;;;;13.93;6.85;;;22.70;50.30;;;;;;5092180;28;20102;-77
2022/05/03 07:42:54;;;;;;;15.77;6.82;;;22.70;50.80;;;;;;5090155;28;20032;-78
2022/05/03 07:45:20;;;;;;;12.43;6.93;;;22.70;50.80;;;;;;5091640;28;20028;-78
2022/05/03 07:47:47;;;;;;;12.13;6.53;;;22.70;50.70;;;;;;5091556;28;20031;-78
2022/05/03 07:50:13;;;;;;;12.20;6.72;;;22.70;50.90;;;;;;5090361;28;20400;-77
2022/05/03 07:52:39;;;;;;;12.80;6.57;;;22.70;51.00;;;;;;5091095;28;20032;-77
2022/05/03 07:55:07;;;;;;;10.80;6.53;;;22.80;51.10;;;;;;5089730;28;20035;-77
2022/05/03 07:57:34;;;;;;;10.98;5.95;;;22.80;51.00;;;;;;5090465;28;20035;-77
2022/05/03 08:00:00;;;;;;;10.65;6.10;;;22.70;51.00;;;;;;5091299;28;20020;-78
2022/05/03 08:02:26;;;;;;;11.98;6.47;;;22.70;51.00;;;;;;5090271;28;20081;-78
2022/05/03 08:04:54;;;;;;;12.05;6.68;;;22.70;50.70;;;;;;5089919;28;20040;-77
2022/05/03 08:07:20;;;;;;;12.27;6.97;;;22.80;51.00;;;;;;5091332;28;20026;-77
2022/05/03 08:09:48;;;;;;;11.50;6.22;;;22.70;50.70;;;;;;5090411;28;20067;-77
2022/05/03 08:12:15;;;;;;;13.73;5.88;;;22.70;50.90;;;;;;5091194;28;20492;-77
2022/05/03 08:14:41;;;;;;;10.15;6.25;;;22.70;51.20;;;;;;5091260;28;20024;-78
2022/05/03 08:17:08;;;;;;;9.13;5.82;;;22.70;51.10;;;;;;5090037;28;20066;-78
2022/05/03 08:19:38;;;;;;;16.83;6.57;;;22.80;51.20;;;;;;5089918;28;20036;-77
2022/05/03 08:22:07;;;;;;;10.77;6.55;;;22.80;50.60;;;;;;5090151;28;20055;-77
2022/05/03 08:24:33;;;;;;;11.95;6.32;;;22.80;50.50;;;;;;5089469;28;20024;-77
2022/05/03 08:26:59;;;;;;;13.20;6.20;;;22.80;50.70;;;;;;5091189;28;20028;-77
2022/05/03 08:29:27;;;;;;;11.75;5.80;;;22.80;50.70;;;;;;5090072;28;20031;-77
2022/05/03 08:31:53;;;;;;;13.40;5.88;;;22.80;50.50;;;;;;5089992;28;20563;-77
2022/05/03 08:34:18;;;;;;;10.25;5.75;;;22.80;50.70;;;;;;5089588;28;20034;-77
2022/05/03 08:42:01;;;;;;;11.75;5.82;;;22.70;50.30;;;;;;5091221;28;20103;-77
2022/05/03 08:42:17;;;;;;;13.15;6.22;;;22.70;50.80;;;;;;5090298;28;20446;-77
2022/05/03 08:44:43;;;;;;;14.10;6.05;;;22.70;50.80;;;;;;5088233;28;20032;-78
2022/05/03 08:47:09;;;;;;;10.68;5.93;;;22.70;50.70;;;;;;5088782;28;20455;-78
2022/05/03 08:49:44;;;;;;;10.32;5.78;;;22.80;50.70;;;;;;5088454;28;20028;-78
2022/05/03 08:52:16;;;;;;;9.38;5.70;;;22.70;50.50;;;;;;5089754;28;20026;-78
2022/05/03 08:54:43;;;;;;;10.27;5.75;;;22.80;50.30;;;;;;5086305;28;20103;-78
2022/05/03 08:57:17;;;;;;;9.65;5.40;;;22.80;50.30;;;;;;5089396;28;20039;-78
2022/05/03 08:59:43;;;;;;;9.77;5.78;;;22.80;50.50;;;;;;5051906;28;20103;-77
2022/05/03 09:02:09;;;;;;;9.77;5.47;;;22.80;50.20;;;;;;5089888;28;20516;-77
2022/05/03 09:04:35;;;;;;;9.55;5.55;;;22.80;50.30;;;;;;5090429;28;20024;-77
2022/05/03 09:07:30;;;;;;;13.88;6.00;;;22.80;50.60;;;;;;5094087;28;20030;-77
2022/05/03 09:10:18;;;;;;;11.70;6.38;;;22.80;50.60;;;;;;5092247;28;20399;-76
2022/05/03 09:12:44;;;;;;;12.10;6.28;;;22.80;50.50;;;;;;5092606;28;20406;-80
2022/05/03 09:15:14;;;;;;;10.13;5.70;;;22.80;50.30;;;;;;5093585;28;20043;-79
2022/05/03 09:17:46;;;;;;;10.75;6.10;;;22.80;50.20;;;;;;5090927;28;20491;-79
2022/05/03 09:25:55;;;;;;;10.30;5.40;;;22.80;50.30;;;;;;5093769;28;20111;-77
2022/05/03 09:28:23;;;;;;;10.50;5.60;;;22.80;50.40;;;;;;5060149;28;20078;-79
2022/05/03 09:30:52;;;;;;;8.07;5.00;;;22.80;50.50;;;;;;5094921;28;20111;-79
2022/05/03 09:33:21;;;;;;;9.15;5.22;;;22.80;50.30;;;;;;5076328;28;20115;-78
2022/05/03 09:35:51;;;;;;;10.32;5.43;;;22.80;50.50;;;;;;5093437;28;20035;-80
2022/05/03 09:38:18;;;;;;;9.25;5.32;;;22.80;50.50;;;;;;5076248;28;20031;-78
2022/05/03 09:40:46;;;;;;;9.95;5.50;;;22.80;50.50;;;;;;5076467;28;20024;-79
2022/05/03 09:43:33;;;;;;;9.95;4.85;;;22.80;50.40;;;;;;5075853;28;20110;-80
2022/05/03 09:46:05;;;;;;;9.15;5.03;;;22.80;50.60;;;;;;5075840;28;20036;-80
2022/05/03 09:48:50;;;;;;;9.63;5.10;;;22.90;50.50;;;;;;5076055;28;20059;-79
2022/05/03 09:51:16;;;;;;;10.55;5.10;;;22.90;50.60;;;;;;5093938;28;20024;-79
2022/05/03 09:53:55;;;;;;;8.32;4.78;;;22.90;50.40;;;;;;5076057;28;20039;-79
2022/05/03 09:56:25;;;;;;;10.10;5.32;;;22.80;50.30;;;;;;5092690;28;20244;-79
2022/05/03 09:58:53;;;;;;;;;;;22.90;50.40;;;;;;5076332;28;20396;-80
2022/05/03 10:01:19;;;;;;;8.95;5.05;;;22.90;50.20;;;;;;5075694;28;19908;-80
2022/05/03 10:03:46;;;;;;;10.25;4.93;;;22.90;50.30;;;;;;5092061;28;20028;-80
2022/05/03 10:06:11;;;;;;;9.32;5.25;;;22.90;50.30;;;;;;5093132;28;20101;-80
2022/05/03 10:08:38;;;;;;;9.52;4.90;;;22.90;50.30;;;;;;5092486;28;20484;-80
2022/05/03 10:11:03;;;;;;;7.35;4.68;;;22.90;50.30;;;;;;5093691;28;20020;-80
2022/05/03 10:13:29;;;;;;;8.63;4.97;;;22.90;50.30;;;;;;5092701;28;20567;-79
2022/05/03 10:21:38;;;;;;;12.38;5.45;;;22.90;52.10;;;;;;5095794;28;20028;-78
2022/05/03 10:24:09;;;;;;;23.77;4.97;;;23.00;52.70;;;;;;5088495;28;20039;-72
2022/05/03 10:27:06;;;;;;;11.15;5.25;;;23.00;50.30;;;;;;5072091;28;20036;-71
2022/05/03 10:29:36;;;;;;;;;;;23.00;49.50;;;;;;5072103;28;20111;-70
2022/05/03 10:32:08;;;;;;;17.23;5.32;;;22.90;50.70;;;;;;5071874;28;20003;-72
2022/05/03 10:35:03;;;;;;;23.48;5.90;;;22.90;50.20;;;;;;5060246;28;20040;-71
2022/05/03 10:37:33;;;;;;;23.60;5.88;;;22.90;48.80;;;;;;5072708;28;20374;-75
2022/05/03 10:40:28;;;;;;;16.80;5.72;;;22.90;48.10;;;;;;5080355;28;20096;-75
2022/05/03 10:43:14;;;;;;;16.08;6.00;;;22.90;48.00;;;;;;5092036;28;20032;-75
2022/05/03 10:45:55;;;;;;;26.35;5.22;;;22.90;46.80;;;;;;5093892;28;20081;-73
2022/05/03 10:48:31;;;;;;;18.45;5.68;;;22.90;46.40;;;;;;5059538;28;20024;-74
2022/05/03 10:51:02;;;;;;;25.58;5.03;;;23.00;46.70;;;;;;5079419;28;20130;-81
2022/05/03 10:53:53;;;;;;;18.30;5.45;;;22.90;46.20;;;;;;5097333;28;20054;-80
2022/05/03 10:56:21;;;;;;;16.45;4.30;;;22.90;45.70;;;;;;5097520;28;20108;-78
2022/05/03 10:59:12;;;;;;;13.88;4.32;;;22.90;45.80;;;;;;5098350;28;20097;-78
2022/05/03 11:01:53;;;;;;;15.35;5.40;;;22.90;45.50;;;;;;5094344;28;20063;-78
2022/05/03 11:04:20;;;;;;;12.70;3.95;;;22.90;45.50;;;;;;5096550;28;20036;-79
2022/05/03 11:06:47;;;;;;;12.73;4.18;;;22.90;45.50;;;;;;5097476;28;20441;-80
2022/05/03 11:09:15;;;;;;;15.15;4.13;;;22.90;45.70;;;;;;5099510;28;20028;-78
2022/05/03 11:14:16;;;;;;;13.90;3.97;;;22.90;46.00;;;;;;5093701;28;20394;-77
2022/05/03 11:17:08;;;;;;;11.20;3.42;;;22.90;46.10;;;;;;5094223;28;20028;-78
2022/05/03 11:19:47;;;;;;;11.15;3.38;;;22.90;46.10;;;;;;5095167;28;20050;-78
2022/05/03 11:22:23;;;;;;;12.13;3.95;;;22.90;46.20;;;;;;5097653;28;20476;-79
2022/05/03 11:24:51;;;;;;;10.73;3.92;;;22.90;46.10;;;;;;5094801;28;20050;-78
2022/05/03 11:27:18;;;;;;;10.75;3.90;;;22.90;46.40;;;;;;5096683;28;20016;-79
2022/05/03 11:29:48;;;;;;;10.25;3.80;;;22.90;46.50;;;;;;5095990;28;20406;-79
2022/05/03 11:32:16;;;;;;;8.15;3.88;;;22.80;46.40;;;;;;5092519;28;20036;-75
2022/05/03 11:34:43;;;;;;;8.23;3.55;;;22.80;46.50;;;;;;5091577;28;20020;-75
2022/05/03 11:37:09;;;;;;;12.32;3.70;;;22.90;46.60;;;;;;5091889;28;20036;-75
2022/05/03 11:39:36;;;;;;;8.18;3.03;;;22.80;46.60;;;;;;5090691;28;20476;-75
2022/05/03 11:42:05;;;;;;;10.20;3.28;;;22.80;46.60;;;;;;5091738;28;20034;-75
2022/05/03 11:44:30;;;;;;;11.57;3.53;;;22.80;46.60;;;;;;5073297;28;20028;-76
2022/05/03 11:47:01;;;;;;;9.93;3.72;;;22.80;46.60;;;;;;5091602;28;20089;-75
2022/05/03 11:49:31;;;;;;;12.38;3.58;;;22.80;46.70;;;;;;5090536;28;20050;-76
2022/05/03 11:57:42;;;;;;;7.70;3.10;;;22.80;47.50;;;;;;5089876;28;20020;-78
2022/05/03 12:00:13;;;;;;;12.60;3.72;;;22.90;47.50;;;;;;5092165;28;20040;-78
2022/05/03 12:02:44;;;;;;;9.38;3.47;;;22.80;47.50;;;;;;5080542;28;20047;-77
2022/05/03 12:05:11;;;;;;;13.23;3.50;;;22.90;47.80;;;;;;5072205;28;20025;-77
2022/05/03 12:07:40;;;;;;;9.82;3.50;;;22.90;48.10;;;;;;5070582;28;20465;-77
2022/05/03 12:10:26;;;;;;;9.02;3.17;;;22.90;48.30;;;;;;5070237;28;20078;-78
2022/05/03 12:13:13;;;;;;;12.35;4.05;;;22.90;48.40;;;;;;5071840;28;20067;-77
2022/05/03 12:15:41;;;;;;;11.52;3.35;;;22.90;48.40;;;;;;5070607;28;20036;-76
2022/05/03 12:18:15;;;;;;;12.25;3.35;;;22.90;48.50;;;;;;5053350;28;20481;-76
2022/05/03 12:20:51;;;;;;;9.77;3.20;;;22.90;48.60;;;;;;5070008;28;20025;-76
2022/05/03 12:23:22;;;;;;;11.50;3.70;;;22.90;48.70;;;;;;5069689;28;20162;-76
2022/05/03 12:25:59;;;;;;;11.65;3.35;;;22.90;48.70;;;;;;5053774;28;20464;-76
2022/05/03 12:28:47;;;;;;;8.30;3.05;;;22.90;48.70;;;;;;5069709;28;20029;-76
2022/05/03 12:31:14;;;;;;;12.13;3.08;;;22.90;48.80;;;;;;5039407;28;20413;-76
2022/05/03 12:33:50;;;;;;;11.02;3.65;;;22.90;48.70;;;;;;5052635;28;20064;-77
2022/05/03 12:36:34;;;;;;;12.70;3.40;;;23.00;49.10;;;;;;5069738;28;20094;-77
2022/05/03 12:39:15;;;;;;;8.27;3.45;;;23.00;49.20;;;;;;5072416;28;20432;-77
2022/05/03 12:41:41;;;;;;;12.02;3.30;;;23.00;49.00;;;;;;5073661;28;20056;-77
2022/05/03 12:44:09;;;;;;;9.18;3.78;;;23.00;52.30;;;;;;5073200;28;20036;-78
2022/05/03 12:46:37;;;;;;;13.02;3.55;;;23.10;50.50;;;;;;5073599;28;20039;-72
2022/05/03 12:49:13;;;;;;;11.15;3.22;;;23.10;51.10;;;;;;5073478;28;20054;-72
2022/05/03 12:51:41;;;;;;;16.05;3.90;;;23.10;49.30;;;;;;5073439;28;20020;-72
2022/05/03 12:54:08;;;;;;;14.00;3.70;;;23.10;50.80;;;;;;5048633;28;20028;-72
2022/05/03 12:59:21;;;;;;;19.88;3.60;;;23.00;50.50;;;;;;5085316;28;20066;-73
2022/05/03 13:01:53;;;;;;;8.63;3.05;;;23.00;46.90;;;;;;5085106;28;20088;-74
2022/05/03 13:04:19;;;;;;;8.50;2.78;;;22.90;46.20;;;;;;5093809;28;20055;-73
2022/05/03 13:06:46;;;;;;;14.13;3.40;;;22.90;45.80;;;;;;5094625;28;20324;-73
2022/05/03 13:09:12;;;;;;;8.32;3.15;;;22.90;46.00;;;;;;5094588;28;20409;-74
2022/05/03 13:11:38;;;;;;;8.23;2.95;;;23.00;46.00;;;;;;5094602;28;20130;-74
2022/05/03 13:14:08;;;;;;;12.15;2.97;;;23.00;46.50;;;;;;5094442;28;20052;-74
2022/05/03 13:16:36;;;;;;;9.27;2.92;;;23.00;46.20;;;;;;5093162;28;20476;-75
2022/05/03 13:19:02;;;;;;;6.53;2.90;;;23.00;46.30;;;;;;5094192;28;20388;-74
2022/05/03 13:21:28;;;;;;;9.63;2.60;;;23.00;46.40;;;;;;5093123;28;20094;-74
2022/05/03 13:23:54;;;;;;;6.72;2.90;;;23.00;46.50;;;;;;5093877;28;20031;-75
2022/05/03 13:26:20;;;;;;;10.30;2.80;;;23.00;46.40;;;;;;5092881;28;20032;-74
2022/05/03 13:28:47;;;;;;;10.98;2.80;;;23.00;46.50;;;;;;5094557;28;20024;-74
2022/05/03 13:31:13;;;;;;;7.35;2.83;;;23.00;46.60;;;;;;5094171;28;20449;-75
2022/05/03 13:33:39;;;;;;;7.90;3.00;;;23.00;46.70;;;;;;5093468;28;20553;-75